Time;durP1;ratioP1;P1;durP2;ratioP2;P2;SDS_P1;SDS_P2;PMS_P1;PMS_P2;Temp;Humidity;BMP_temperature;BMP_pressure;BME280_temperature;BME280_humidity;BME280_pressure;Samples;Min_cycle;Max_cycle;Signal;HPM_P1;HPM_P2
2023/01/15 10:41:00;;;;;;;2.97;1.77;;;8.10;99.90;;;;;;4970901;29;20582;-44
2023/01/15 10:43:38;;;;;;;3.63;1.60;;;8.10;99.90;;;;;;4962384;29;20456;-47
2023/01/15 10:46:13;;;;;;;1.30;0.93;;;8.20;99.90;;;;;;4977242;29;20450;-48
2023/01/15 10:48:45;;;;;;;1.47;0.90;;;8.20;99.90;;;;;;4960527;29;20472;-47
2023/01/15 10:51:16;;;;;;;1.60;1.00;;;8.30;99.90;;;;;;4970762;29;20467;-50
2023/01/15 10:53:47;;;;;;;1.50;1.10;;;8.20;99.90;;;;;;4977701;28;20476;-47
2023/01/15 10:56:29;;;;;;;1.37;1.00;;;8.30;99.90;;;;;;4978815;29;20488;-44
2023/01/15 10:59:07;;;;;;;1.10;0.80;;;8.30;99.90;;;;;;4970507;29;20476;-46
2023/01/15 11:01:35;;;;;;;1.40;0.97;;;8.30;99.90;;;;;;4977766;29;20526;-51
2023/01/15 11:04:02;;;;;;;2.20;0.90;;;8.30;99.90;;;;;;4978224;29;20511;-44
2023/01/15 11:06:31;;;;;;;1.53;1.20;;;8.40;99.90;;;;;;4973525;28;20456;-47
2023/01/15 11:08:59;;;;;;;2.00;1.10;;;8.40;99.90;;;;;;4958263;29;20532;-51
2023/01/15 11:20:03;;;;;;;1.00;0.90;;;8.50;99.90;;;;;;4976878;29;20463;-48
2023/01/15 11:22:31;;;;;;;1.60;1.50;;;8.50;99.90;;;;;;4975949;28;20520;-47
2023/01/15 11:25:00;;;;;;;2.20;1.33;;;8.50;99.90;;;;;;4977365;29;20493;-50
2023/01/15 11:27:32;;;;;;;1.20;1.00;;;8.40;99.90;;;;;;4977230;29;20463;-44
2023/01/15 11:30:00;;;;;;;2.70;1.57;;;8.40;99.90;;;;;;4976966;29;20463;-48
2023/01/15 11:32:30;;;;;;;1.83;1.13;;;8.30;99.90;;;;;;4971681;29;20529;-38
2023/01/15 11:34:59;;;;;;;1.20;0.93;;;8.40;99.90;;;;;;4977751;29;20507;-38
2023/01/15 11:37:26;;;;;;;1.50;1.20;;;8.30;99.90;;;;;;4968525;29;20467;-40
2023/01/15 11:39:59;;;;;;;2.70;1.23;;;8.20;99.90;;;;;;4977704;29;20436;-41
2023/01/15 11:50:51;;;;;;;1.63;0.97;;;8.10;99.90;;;;;;4951396;29;20436;-41
2023/01/15 11:53:23;;;;;;;1.17;0.67;;;8.10;99.90;;;;;;4947230;29;20759;-38
2023/01/15 11:55:59;;;;;;;2.03;0.80;;;8.10;99.90;;;;;;4939478;29;20469;-36
2023/01/15 11:58:29;;;;;;;1.40;0.80;;;8.10;99.90;;;;;;4939281;29;20448;-39
2023/01/15 12:00:59;;;;;;;1.30;0.80;;;8.20;99.90;;;;;;4943633;29;20476;-38
2023/01/15 12:03:28;;;;;;;2.17;1.97;;;8.10;99.90;;;;;;4957207;29;20487;-39
2023/01/15 12:06:04;;;;;;;2.80;1.13;;;8.10;99.90;;;;;;4957306;29;20432;-41
2023/01/15 12:08:43;;;;;;;1.30;0.87;;;8.10;99.90;;;;;;4957852;29;20416;-38
2023/01/15 12:11:29;;;;;;;3.10;0.80;;;8.00;99.90;;;;;;4957462;29;20452;-57
2023/01/15 12:14:11;;;;;;;4.10;1.00;;;8.00;99.90;;;;;;4937804;29;20461;-57
2023/01/15 12:16:46;;;;;;;1.13;0.90;;;8.00;99.90;;;;;;4937659;29;20437;-57
2023/01/15 12:19:25;;;;;;;2.13;0.90;;;8.00;99.90;;;;;;4938281;29;20481;-58
2023/01/15 12:22:16;;;;;;;2.13;0.80;;;8.00;99.90;;;;;;4938046;29;20430;-58
2023/01/15 12:25:22;;;;;;;2.40;0.90;;;8.00;99.90;;;;;;4938188;29;20436;-56
2023/01/15 12:28:03;;;;;;;1.83;1.03;;;8.00;99.90;;;;;;4937920;29;20493;-54
2023/01/15 12:30:39;;;;;;;1.37;0.93;;;8.00;99.90;;;;;;4939948;29;20453;-55
2023/01/15 12:33:23;;;;;;;1.63;0.90;;;8.00;99.90;;;;;;4949895;29;20425;-55
2023/01/15 12:35:56;;;;;;;1.70;1.30;;;8.10;99.90;;;;;;4949100;29;20493;-48
2023/01/15 12:38:34;;;;;;;1.83;1.20;;;8.10;99.90;;;;;;4957123;29;20476;-54
2023/01/15 12:41:07;;;;;;;3.77;1.13;;;8.10;99.90;;;;;;4942865;29;20417;-53
2023/01/15 12:46:27;;;;;;;2.67;0.80;;;8.10;99.90;;;;;;4956242;29;20481;-57
2023/01/15 12:49:02;;;;;;;3.20;0.80;;;8.20;99.90;;;;;;4955291;29;20500;-56
2023/01/15 12:51:33;;;;;;;2.83;0.80;;;8.20;99.90;;;;;;4955179;29;20448;-52
2023/01/15 12:54:06;;;;;;;1.60;1.10;;;8.20;99.90;;;;;;4956233;29;20456;-55
2023/01/15 12:56:42;;;;;;;3.33;1.30;;;8.20;99.90;;;;;;4956133;29;20486;-53
2023/01/15 12:59:18;;;;;;;5.03;0.90;;;8.20;99.90;;;;;;4947638;29;20474;-51
2023/01/15 13:01:55;;;;;;;6.57;1.73;;;8.20;99.90;;;;;;4941704;29;20476;-52
2023/01/15 13:04:28;;;;;;;2.17;1.00;;;8.20;99.90;;;;;;4957700;29;20459;-55
2023/01/15 13:07:01;;;;;;;9.20;1.20;;;8.10;99.90;;;;;;4946703;29;20480;-55
2023/01/15 13:09:37;;;;;;;1.27;0.80;;;8.20;99.90;;;;;;4949107;29;20433;-47
2023/01/15 13:12:12;;;;;;;2.37;1.10;;;8.10;99.90;;;;;;4954953;29;20469;-54
2023/01/15 13:14:38;;;;;;;1.20;0.97;;;8.10;99.90;;;;;;4957024;29;20476;-54
2023/01/15 13:17:17;;;;;;;2.90;0.90;;;8.10;99.90;;;;;;4937897;29;20491;-55
2023/01/15 13:19:50;;;;;;;1.13;0.90;;;8.00;99.90;;;;;;4935858;29;20503;-57
2023/01/15 13:22:21;;;;;;;1.00;0.80;;;8.00;99.90;;;;;;4940143;29;20500;-58
2023/01/15 13:25:23;;;;;;;2.90;0.87;;;8.10;99.90;;;;;;4940546;29;20445;-57
2023/01/15 13:28:04;;;;;;;2.60;1.07;;;8.00;99.90;;;;;;4934906;29;20500;-57
2023/01/15 13:30:43;;;;;;;2.00;1.20;;;8.00;99.90;;;;;;4940935;29;20523;-55
2023/01/15 13:33:23;;;;;;;4.10;2.20;;;8.00;99.90;;;;;;4940310;29;20551;-61
2023/01/15 13:35:53;;;;;;;1.70;1.00;;;7.90;99.90;;;;;;4940910;29;20547;-57
2023/01/15 13:38:22;;;;;;;1.50;1.00;;;7.90;99.90;;;;;;4941987;29;20535;-55
2023/01/15 13:40:52;;;;;;;3.00;1.30;;;7.90;99.90;;;;;;4942493;29;20456;-57
2023/01/15 13:43:33;;;;;;;5.30;1.37;;;8.00;99.90;;;;;;4943395;29;20535;-57
2023/01/15 13:46:03;;;;;;;2.97;1.20;;;8.00;99.90;;;;;;4943202;29;20528;-53
2023/01/15 13:48:35;;;;;;;1.57;1.13;;;8.00;99.90;;;;;;4944241;29;20452;-58
2023/01/15 13:51:04;;;;;;;2.20;1.30;;;7.90;99.90;;;;;;4934245;29;20555;-52
2023/01/15 13:53:33;;;;;;;3.97;1.47;;;7.90;99.90;;;;;;4948378;29;20471;-58
2023/01/15 13:56:05;;;;;;;3.10;0.87;;;7.90;99.90;;;;;;4947836;29;20524;-58
2023/01/15 13:58:33;;;;;;;1.30;1.00;;;7.80;99.90;;;;;;4956749;29;20488;-53
2023/01/15 14:01:06;;;;;;;2.80;1.53;;;7.90;99.90;;;;;;4959476;29;20452;-52
2023/01/15 14:03:37;;;;;;;3.73;0.97;;;7.80;99.90;;;;;;4958619;29;20500;-57
2023/01/15 14:06:06;;;;;;;1.87;0.73;;;7.90;99.90;;;;;;4958538;29;20906;-54
2023/01/15 14:08:41;;;;;;;1.57;0.97;;;7.90;99.90;;;;;;4958460;29;20463;-53
2023/01/15 14:11:31;;;;;;;1.67;0.90;;;7.90;99.90;;;;;;4958762;29;20448;-53
2023/01/15 14:14:19;;;;;;;5.90;1.73;;;7.90;99.90;;;;;;4958850;29;20468;-54
2023/01/15 14:16:56;;;;;;;3.53;1.43;;;7.90;99.90;;;;;;4956656;29;20473;-56
2023/01/15 14:19:42;;;;;;;1.40;1.10;;;7.80;99.90;;;;;;4953570;29;20546;-58
2023/01/15 14:22:29;;;;;;;2.40;1.47;;;7.80;99.90;;;;;;4948495;29;20436;-60
2023/01/15 14:25:23;;;;;;;1.63;1.10;;;7.80;99.90;;;;;;4944882;29;20476;-56
2023/01/15 14:28:02;;;;;;;4.03;1.00;;;7.70;99.90;;;;;;4942414;29;20922;-58
2023/01/15 14:30:48;;;;;;;2.00;0.80;;;7.70;99.90;;;;;;4941968;29;20508;-57
2023/01/15 14:33:27;;;;;;;1.30;0.90;;;7.70;99.90;;;;;;4943542;29;20473;-54
2023/01/15 14:35:55;;;;;;;2.57;1.60;;;7.70;99.90;;;;;;4941873;29;20476;-58
2023/01/15 14:38:26;;;;;;;1.40;0.87;;;7.60;99.90;;;;;;4942093;29;20520;-58
2023/01/15 14:40:58;;;;;;;5.53;1.00;;;7.60;99.90;;;;;;4941891;29;20480;-57
2023/01/15 14:43:28;;;;;;;2.43;1.00;;;7.60;99.90;;;;;;4951140;29;20433;-59
2023/01/15 14:45:55;;;;;;;1.20;0.80;;;7.50;99.90;;;;;;4946470;29;20456;-57
2023/01/15 14:48:38;;;;;;;2.30;1.00;;;7.40;99.90;;;;;;4941770;29;20473;-58
2023/01/15 14:51:12;;;;;;;1.60;1.00;;;7.40;99.90;;;;;;4949616;29;20417;-53
2023/01/15 14:53:43;;;;;;;2.37;0.97;;;7.40;99.90;;;;;;4942905;29;20526;-54
2023/01/15 14:56:23;;;;;;;4.27;1.20;;;7.40;99.90;;;;;;4939792;29;20472;-53
2023/01/15 14:58:56;;;;;;;1.30;0.90;;;7.30;99.90;;;;;;4939230;29;20468;-57
2023/01/15 15:01:35;;;;;;;1.30;1.20;;;7.40;99.90;;;;;;4940169;29;20516;-56
2023/01/15 15:04:12;;;;;;;2.73;1.07;;;7.40;99.90;;;;;;4941657;29;20469;-57
2023/01/15 15:06:47;;;;;;;4.10;1.20;;;7.40;99.90;;;;;;4942820;29;20443;-58
2023/01/15 15:09:19;;;;;;;2.33;0.83;;;7.40;99.90;;;;;;4942011;29;20460;-57
2023/01/15 15:14:38;;;;;;;1.67;1.30;;;7.40;99.90;;;;;;4947309;29;20412;-57
2023/01/15 15:17:13;;;;;;;1.73;1.00;;;7.30;99.90;;;;;;4959740;29;20489;-65
2023/01/15 15:19:45;;;;;;;6.13;1.80;;;7.30;99.90;;;;;;4959497;29;20404;-54
2023/01/15 15:22:19;;;;;;;1.77;0.90;;;7.20;99.90;;;;;;4958685;29;20517;-55
2023/01/15 15:24:49;;;;;;;1.80;1.30;;;7.20;99.90;;;;;;4959169;29;20453;-47
2023/01/15 15:27:18;;;;;;;1.33;1.10;;;7.20;99.90;;;;;;4958569;29;20429;-54
2023/01/15 15:29:45;;;;;;;2.90;1.87;;;7.10;99.90;;;;;;4945445;29;20496;-55
2023/01/15 15:32:17;;;;;;;2.03;1.10;;;7.10;99.90;;;;;;4959320;29;20449;-52
2023/01/15 15:34:49;;;;;;;1.43;0.90;;;7.00;99.90;;;;;;4959284;29;20429;-59
2023/01/15 15:37:22;;;;;;;1.83;1.00;;;6.90;99.90;;;;;;4949005;29;20452;-52
2023/01/15 15:39:53;;;;;;;2.97;1.87;;;6.90;99.90;;;;;;4941615;29;20517;-56
2023/01/15 15:50:58;;;;;;;3.50;1.97;;;6.70;99.90;;;;;;4958310;29;20467;-49
2023/01/15 15:53:27;;;;;;;2.00;1.20;;;6.60;99.90;;;;;;4954167;29;20458;-55
2023/01/15 15:55:56;;;;;;;1.33;0.90;;;6.60;99.90;;;;;;4956402;29;20488;-51
2023/01/15 15:58:26;;;;;;;2.40;1.17;;;6.60;99.90;;;;;;4957157;29;20444;-54
2023/01/15 16:00:55;;;;;;;3.63;1.10;;;6.50;99.90;;;;;;4941017;29;20453;-56
2023/01/15 16:03:24;;;;;;;1.00;0.70;;;6.50;99.90;;;;;;4940977;29;20452;-56
2023/01/15 16:05:59;;;;;;;1.20;0.90;;;6.50;99.90;;;;;;4938971;29;20448;-59
2023/01/15 16:08:31;;;;;;;4.03;1.37;;;6.50;99.90;;;;;;4946077;29;20503;-53
2023/01/15 16:11:01;;;;;;;1.67;0.90;;;6.50;99.90;;;;;;4957353;29;20437;-56
2023/01/15 16:13:32;;;;;;;2.07;1.03;;;6.50;99.90;;;;;;4956536;29;20467;-54
2023/01/15 16:16:01;;;;;;;2.90;1.20;;;6.50;99.90;;;;;;4956962;29;20575;-53
2023/01/15 16:18:32;;;;;;;1.10;0.77;;;6.40;99.90;;;;;;4957117;29;20460;-54
2023/01/15 16:20:59;;;;;;;1.30;0.90;;;6.40;99.90;;;;;;4954073;29;20421;-53
2023/01/15 16:23:28;;;;;;;2.03;0.87;;;6.40;99.90;;;;;;4957201;29;20445;-54
2023/01/15 16:26:12;;;;;;;3.57;1.53;;;6.40;99.90;;;;;;4956695;29;20482;-58
2023/01/15 16:28:45;;;;;;;1.20;0.80;;;6.40;99.90;;;;;;4957187;29;20875;-56
2023/01/15 16:31:16;;;;;;;1.67;0.77;;;6.30;99.90;;;;;;4957433;29;20477;-55
2023/01/15 16:33:43;;;;;;;4.97;1.20;;;6.30;99.90;;;;;;4957285;29;20429;-56
2023/01/15 16:36:11;;;;;;;1.67;0.90;;;6.30;99.90;;;;;;4956728;29;20512;-54
2023/01/15 16:38:48;;;;;;;1.23;0.90;;;6.30;99.90;;;;;;4957392;29;20433;-55
2023/01/15 16:41:20;;;;;;;3.87;2.10;;;6.30;99.90;;;;;;4957999;29;20433;-54
2023/01/15 16:43:55;;;;;;;2.17;1.43;;;6.30;99.90;;;;;;4957651;29;20480;-55
2023/01/15 16:46:26;;;;;;;1.60;1.07;;;6.30;99.90;;;;;;4957923;29;20422;-56
2023/01/15 16:49:19;;;;;;;2.50;1.33;;;6.30;99.90;;;;;;4957647;29;20549;-57
2023/01/15 16:51:46;;;;;;;8.90;1.13;;;6.30;99.90;;;;;;4950613;29;20410;-51
2023/01/15 16:54:45;;;;;;;3.37;1.10;;;6.30;99.90;;;;;;4957546;29;20515;-51
2023/01/15 16:57:32;;;;;;;4.60;2.03;;;6.20;99.90;;;;;;4956882;29;20472;-57
2023/01/15 17:00:02;;;;;;;2.07;0.90;;;6.20;99.90;;;;;;4957763;29;20889;-53
2023/01/15 17:02:42;;;;;;;2.90;1.10;;;6.20;99.90;;;;;;4956569;29;20492;-58
2023/01/15 17:05:21;;;;;;;1.80;1.00;;;6.10;99.90;;;;;;4951663;29;20468;-57
2023/01/15 17:07:52;;;;;;;1.00;0.70;;;6.10;99.90;;;;;;4946013;29;20433;-53
2023/01/15 17:10:21;;;;;;;1.47;0.87;;;6.10;99.90;;;;;;4947741;29;20429;-53
2023/01/15 17:12:50;;;;;;;3.03;1.43;;;6.10;99.90;;;;;;4948730;29;20425;-60
2023/01/15 17:15:36;;;;;;;1.73;1.07;;;6.10;99.90;;;;;;4958181;29;20501;-59
2023/01/15 17:18:21;;;;;;;7.20;3.10;;;6.10;99.90;;;;;;4957495;29;20425;-55
2023/01/15 17:20:48;;;;;;;1.17;0.87;;;6.10;99.90;;;;;;4956911;29;20433;-54
2023/01/15 17:23:18;;;;;;;2.63;1.20;;;6.10;99.90;;;;;;4957710;29;20484;-55
2023/01/15 17:25:47;;;;;;;2.57;1.00;;;6.10;99.90;;;;;;4952226;29;20432;-63
2023/01/15 17:28:18;;;;;;;1.83;0.90;;;6.10;99.90;;;;;;4940689;29;20476;-60
2023/01/15 17:30:47;;;;;;;1.40;0.90;;;6.10;99.90;;;;;;4941235;29;20441;-58
2023/01/15 17:33:14;;;;;;;3.40;1.30;;;6.10;99.90;;;;;;4939784;29;20463;-59
2023/01/15 17:35:41;;;;;;;2.07;0.80;;;6.10;99.90;;;;;;4937074;29;20447;-55
2023/01/15 17:38:12;;;;;;;11.93;2.10;;;6.10;99.90;;;;;;4945000;29;20448;-56
2023/01/15 17:40:40;;;;;;;1.00;0.80;;;6.10;99.90;;;;;;4956747;29;20500;-58
2023/01/15 17:43:07;;;;;;;1.63;0.87;;;6.10;99.90;;;;;;4956171;29;20465;-58
2023/01/15 18:50:00;;;;;;;3.67;1.77;;;6.20;99.90;;;;;;5842321;23;20502;-51
2023/01/15 18:55:11;;;;;;;1.70;1.33;;;6.20;99.90;;;;;;4999140;28;20453;-60
2023/01/15 18:57:39;;;;;;;6.13;2.57;;;6.20;99.90;;;;;;4999050;28;20470;-54
2023/01/15 19:00:07;;;;;;;1.20;0.83;;;6.20;99.90;;;;;;4988957;28;20477;-57
2023/01/15 19:02:34;;;;;;;2.87;1.50;;;6.20;99.90;;;;;;4998918;28;20425;-53
2023/01/15 19:05:03;;;;;;;1.30;0.90;;;6.20;99.90;;;;;;4995206;28;20471;-50
2023/01/15 19:07:30;;;;;;;3.20;1.40;;;6.20;99.90;;;;;;4963313;29;20451;-54
2023/01/15 19:09:57;;;;;;;1.20;0.90;;;6.20;99.90;;;;;;4963139;29;20487;-51
2023/01/15 19:12:24;;;;;;;1.30;0.97;;;6.20;99.90;;;;;;4964058;29;20440;-49
2023/01/15 19:20:26;;;;;;;2.17;0.93;;;6.20;99.90;;;;;;4978326;29;20445;-50
2023/01/15 19:22:59;;;;;;;1.47;0.80;;;6.20;99.90;;;;;;4978973;29;20472;-50
2023/01/15 19:25:28;;;;;;;1.17;0.87;;;6.20;99.90;;;;;;4986729;28;20465;-50
2023/01/15 19:27:55;;;;;;;1.50;1.00;;;6.20;99.90;;;;;;4997764;28;20427;-47
2023/01/15 19:30:22;;;;;;;4.30;1.40;;;6.20;99.90;;;;;;4997996;28;20478;-50
2023/01/15 19:32:49;;;;;;;2.93;1.13;;;6.20;99.90;;;;;;4998469;28;20463;-49
2023/01/15 19:35:17;;;;;;;5.33;1.60;;;6.20;99.90;;;;;;5009092;28;20472;-53
2023/01/15 19:37:46;;;;;;;1.00;0.70;;;6.20;99.90;;;;;;5016284;28;20485;-51
2023/01/15 19:40:17;;;;;;;1.60;0.90;;;6.20;99.90;;;;;;5016916;28;20466;-51
2023/01/15 19:51:00;;;;;;;1.30;1.10;;;6.30;99.90;;;;;;5017708;28;20469;-54
2023/01/15 19:53:36;;;;;;;1.20;0.70;;;6.30;99.90;;;;;;5014170;28;20485;-49
2023/01/15 19:56:03;;;;;;;1.23;0.80;;;6.20;99.90;;;;;;4998062;28;20463;-50
2023/01/15 19:58:32;;;;;;;1.63;0.67;;;6.30;99.90;;;;;;4997778;28;20447;-54
2023/01/15 20:01:00;;;;;;;1.03;0.83;;;6.30;99.90;;;;;;4997945;28;20473;-50
2023/01/15 20:03:26;;;;;;;2.57;1.20;;;6.30;99.90;;;;;;4998313;28;20451;-54
2023/01/15 20:05:54;;;;;;;3.07;1.00;;;6.20;99.90;;;;;;4998529;28;20431;-51
2023/01/15 20:08:21;;;;;;;1.77;1.13;;;6.20;99.90;;;;;;4997440;28;20477;-57
2023/01/15 20:10:51;;;;;;;1.40;1.10;;;6.20;99.90;;;;;;4998710;28;20459;-56
2023/01/15 20:16:09;;;;;;;0.90;0.70;;;6.20;99.90;;;;;;4998456;28;20414;-56
2023/01/15 20:18:37;;;;;;;3.00;1.03;;;6.20;99.90;;;;;;4990894;28;20498;-62
2023/01/15 20:21:04;;;;;;;3.60;1.10;;;6.20;99.90;;;;;;4980040;28;20518;-62
2023/01/15 20:23:31;;;;;;;1.87;0.93;;;6.20;99.90;;;;;;4978536;28;20502;-59
2023/01/15 20:26:05;;;;;;;2.80;1.13;;;6.20;99.90;;;;;;4978030;28;20507;-58
2023/01/15 20:28:34;;;;;;;2.27;2.00;;;6.20;99.90;;;;;;4978367;28;20474;-60
2023/01/15 20:31:01;;;;;;;3.30;1.20;;;6.20;99.90;;;;;;4978107;28;20455;-61
2023/01/15 20:33:28;;;;;;;1.80;1.00;;;6.20;99.90;;;;;;4981845;28;20534;-58
2023/01/15 20:35:55;;;;;;;2.20;0.73;;;6.20;99.90;;;;;;4988999;28;20443;-61
2023/01/15 20:38:23;;;;;;;3.93;1.00;;;6.20;99.90;;;;;;4982424;28;20495;-61
2023/01/15 20:40:51;;;;;;;1.33;0.70;;;6.20;99.90;;;;;;4982877;28;20451;-60
2023/01/15 20:46:09;;;;;;;4.20;0.80;;;6.20;99.90;;;;;;4982878;28;20415;-60
2023/01/15 20:51:20;;;;;;;3.07;0.87;;;6.20;99.90;;;;;;4983376;28;20414;-62
2023/01/15 20:53:48;;;;;;;1.53;0.90;;;6.20;99.90;;;;;;4990965;28;20517;-56
2023/01/15 20:56:16;;;;;;;3.00;1.10;;;6.20;99.90;;;;;;4989019;28;20428;-60
2023/01/15 20:58:44;;;;;;;1.63;0.90;;;6.20;99.90;;;;;;4982930;28;20533;-63
2023/01/15 21:01:12;;;;;;;2.43;1.00;;;6.10;99.90;;;;;;4993554;28;20435;-61
2023/01/15 21:03:39;;;;;;;1.50;1.00;;;6.10;99.90;;;;;;4992640;28;20439;-58
2023/01/15 21:06:07;;;;;;;1.43;1.30;;;6.10;99.90;;;;;;4996082;28;20443;-55
2023/01/15 21:08:34;;;;;;;7.50;1.10;;;6.10;99.90;;;;;;4996519;28;20450;-54
2023/01/15 21:11:02;;;;;;;1.30;0.90;;;6.10;99.90;;;;;;4991694;28;20467;-62
2023/01/15 21:13:29;;;;;;;1.40;0.90;;;6.10;99.90;;;;;;4994205;28;20450;-61
2023/01/15 21:16:00;;;;;;;4.60;1.10;;;6.10;99.90;;;;;;4996459;28;20467;-61
2023/01/15 21:18:29;;;;;;;1.10;0.90;;;6.20;99.90;;;;;;4989095;28;20522;-60
2023/01/15 21:20:56;;;;;;;1.83;1.27;;;6.10;99.90;;;;;;4979368;28;20849;-62
2023/01/15 21:23:24;;;;;;;3.37;1.00;;;6.20;99.90;;;;;;4984519;28;20461;-62
2023/01/15 21:25:51;;;;;;;1.63;0.90;;;6.10;99.90;;;;;;4994495;28;20892;-60
2023/01/15 21:28:18;;;;;;;14.23;1.37;;;6.20;99.90;;;;;;4985000;28;20467;-63
2023/01/15 21:30:45;;;;;;;3.90;1.70;;;6.20;99.90;;;;;;4987084;28;20454;-63
2023/01/15 21:33:13;;;;;;;5.63;2.00;;;6.10;99.90;;;;;;4989144;28;20494;-62
2023/01/15 21:35:41;;;;;;;3.00;1.27;;;6.20;99.90;;;;;;4996098;28;20438;-61
2023/01/15 21:38:08;;;;;;;4.87;1.30;;;6.20;99.90;;;;;;4996318;28;20474;-61
2023/01/15 21:40:36;;;;;;;1.30;1.17;;;6.20;99.90;;;;;;4996190;28;20447;-60
2023/01/15 21:45:49;;;;;;;3.93;0.90;;;6.20;99.90;;;;;;4996302;28;20477;-58
2023/01/15 21:48:17;;;;;;;3.20;0.90;;;6.20;99.90;;;;;;4996237;28;20474;-61
2023/01/15 21:50:44;;;;;;;1.20;0.90;;;6.20;99.90;;;;;;4989888;28;20462;-60
2023/01/15 21:53:11;;;;;;;4.37;1.40;;;6.20;99.90;;;;;;4983727;28;20451;-61
2023/01/15 21:55:38;;;;;;;1.30;0.83;;;6.30;99.90;;;;;;4984164;28;20580;-64
2023/01/15 21:58:05;;;;;;;3.57;1.10;;;6.20;99.90;;;;;;4989436;28;20470;-60
2023/01/15 22:00:32;;;;;;;3.90;0.80;;;6.30;99.90;;;;;;4990358;28;20447;-63
2023/01/15 22:02:59;;;;;;;2.00;1.07;;;6.30;99.90;;;;;;4983472;28;20462;-63
2023/01/15 22:05:27;;;;;;;4.13;1.20;;;6.30;99.90;;;;;;4985875;28;20791;-64
2023/01/15 22:07:55;;;;;;;3.00;1.77;;;6.30;99.90;;;;;;4983267;28;20983;-60
2023/01/15 22:10:22;;;;;;;2.10;1.30;;;6.30;99.90;;;;;;4983575;28;20558;-60
2023/01/15 22:12:49;;;;;;;1.73;1.00;;;6.40;99.90;;;;;;4987917;28;20482;-65
2023/01/15 22:15:16;;;;;;;2.97;1.20;;;6.80;99.90;;;;;;4981335;28;20518;-63
2023/01/15 22:17:43;;;;;;;1.00;0.83;;;7.50;99.90;;;;;;4983414;28;20932;-61
2023/01/15 22:20:11;;;;;;;1.60;1.00;;;7.90;99.90;;;;;;4987077;28;20597;-62
2023/01/15 22:22:39;;;;;;;1.67;0.97;;;7.60;99.90;;;;;;4990414;28;20550;-63
2023/01/15 22:25:11;;;;;;;1.70;1.13;;;7.30;99.90;;;;;;4987372;28;20534;-62
2023/01/15 22:27:39;;;;;;;0.90;0.70;;;7.00;99.90;;;;;;4985769;28;20514;-63
2023/01/15 22:30:08;;;;;;;1.87;1.50;;;6.80;99.90;;;;;;4985687;28;20447;-61
2023/01/15 22:32:35;;;;;;;3.93;0.97;;;6.60;99.90;;;;;;4990053;28;20546;-63
2023/01/15 22:35:02;;;;;;;4.53;1.80;;;6.50;99.90;;;;;;4992568;28;20927;-63
2023/01/15 22:37:30;;;;;;;0.97;0.70;;;6.30;99.90;;;;;;4989443;28;21040;-64
2023/01/15 22:39:58;;;;;;;4.10;1.20;;;6.20;99.90;;;;;;4978743;28;20518;-63
2023/01/15 22:42:26;;;;;;;1.10;1.00;;;6.20;99.90;;;;;;4980027;28;20550;-61
2023/01/15 22:44:56;;;;;;;1.93;0.90;;;6.20;99.90;;;;;;4978519;28;20557;-63
2023/01/15 22:47:23;;;;;;;3.13;1.17;;;6.10;99.90;;;;;;4979105;28;20447;-62
2023/01/15 22:49:50;;;;;;;3.23;1.60;;;6.10;99.90;;;;;;4979281;28;20478;-60
2023/01/15 22:52:17;;;;;;;2.00;1.03;;;6.00;99.90;;;;;;4982368;28;20525;-64
2023/01/15 22:54:44;;;;;;;2.37;1.03;;;6.00;99.90;;;;;;4985493;28;20888;-61
2023/01/15 22:57:13;;;;;;;1.97;1.23;;;6.00;99.90;;;;;;4981949;28;20495;-63
2023/01/15 22:59:40;;;;;;;2.83;1.50;;;6.00;99.90;;;;;;4981776;28;20538;-62
2023/01/15 23:02:08;;;;;;;2.70;0.70;;;6.00;99.90;;;;;;4981534;28;20511;-63
2023/01/15 23:04:35;;;;;;;1.67;1.10;;;6.00;99.90;;;;;;4980268;28;20443;-65
2023/01/15 23:07:02;;;;;;;2.20;1.00;;;6.00;99.90;;;;;;4981377;28;20802;-64
2023/01/15 23:09:29;;;;;;;2.33;1.27;;;5.90;99.90;;;;;;4993539;28;20542;-62
2023/01/15 23:11:56;;;;;;;3.23;1.07;;;6.00;99.90;;;;;;4979445;28;20509;-63
2023/01/15 23:14:24;;;;;;;2.20;0.80;;;6.00;99.90;;;;;;4986393;28;20455;-57
2023/01/15 23:16:51;;;;;;;9.53;1.20;;;6.00;99.90;;;;;;5000990;28;20411;-64
2023/01/15 23:19:19;;;;;;;1.20;0.90;;;6.00;99.90;;;;;;4981525;28;20493;-62
2023/01/15 23:21:46;;;;;;;2.23;1.00;;;6.00;99.90;;;;;;4993239;28;20466;-62
2023/01/15 23:24:13;;;;;;;3.03;1.10;;;6.00;99.90;;;;;;4997490;28;20446;-61
2023/01/15 23:26:40;;;;;;;1.20;0.90;;;5.90;99.90;;;;;;4995152;28;20443;-64
2023/01/15 23:29:07;;;;;;;1.70;1.17;;;5.90;99.90;;;;;;4977726;28;20519;-64
2023/01/15 23:31:35;;;;;;;3.03;1.80;;;6.00;99.90;;;;;;4977631;28;20461;-64
2023/01/15 23:34:02;;;;;;;1.60;1.17;;;6.00;99.90;;;;;;4978396;28;20475;-64
2023/01/15 23:36:29;;;;;;;2.47;1.40;;;6.10;99.90;;;;;;4978100;28;20544;-63
2023/01/15 23:38:56;;;;;;;1.07;0.83;;;6.10;99.90;;;;;;4989559;28;20493;-63
2023/01/15 23:46:51;;;;;;;2.50;1.00;;;6.00;99.90;;;;;;4982580;28;20470;-61
2023/01/15 23:49:18;;;;;;;1.83;0.90;;;6.00;99.90;;;;;;4994905;28;20447;-63
2023/01/15 23:51:45;;;;;;;1.30;0.90;;;6.00;99.90;;;;;;4997080;28;20462;-53
2023/01/15 23:54:12;;;;;;;1.77;0.83;;;5.90;99.90;;;;;;4989883;28;20478;-63
2023/01/15 23:56:39;;;;;;;2.80;1.00;;;6.00;99.90;;;;;;4980240;28;20451;-64
2023/01/15 23:59:05;;;;;;;4.93;1.47;;;5.90;99.90;;;;;;4977773;28;20512;-62
